Time;durP1;ratioP1;P1;durP2;ratioP2;P2;SDS_P1;SDS_P2;PMS_P1;PMS_P2;Temp;Humidity;BMP_temperature;BMP_pressure;BME280_temperature;BME280_humidity;BME280_pressure;Samples;Min_cycle;Max_cycle;Signal;HPM_P1;HPM_P2
2022/10/28 00:02:17;;;;;;;15.82;9.20;;;16.30;99.90;;;;;;5053628;28;20439;-44
2022/10/28 00:04:42;;;;;;;18.85;8.52;;;16.10;99.90;;;;;;5053325;28;20040;-45
2022/10/28 00:07:08;;;;;;;16.20;8.77;;;16.20;99.90;;;;;;5053230;28;20095;-45
2022/10/28 00:09:33;;;;;;;14.77;8.82;;;16.10;99.90;;;;;;5053469;28;20037;-44
2022/10/28 00:11:59;;;;;;;19.80;9.38;;;16.30;99.90;;;;;;5053571;28;20045;-45
2022/10/28 00:14:25;;;;;;;15.98;8.38;;;16.30;99.90;;;;;;5052887;28;20128;-45
2022/10/28 00:16:50;;;;;;;14.73;9.27;;;16.10;99.90;;;;;;5052999;28;20073;-45
2022/10/28 00:19:17;;;;;;;16.10;8.85;;;16.30;99.90;;;;;;5053140;28;20091;-45
2022/10/28 00:21:43;;;;;;;20.25;9.35;;;16.20;99.90;;;;;;5052427;28;20485;-45
2022/10/28 00:24:11;;;;;;;15.23;8.48;;;16.20;99.90;;;;;;5053344;28;20036;-44
2022/10/28 00:26:41;;;;;;;13.80;8.70;;;16.10;99.90;;;;;;5053163;28;20084;-43
2022/10/28 00:29:12;;;;;;;17.98;9.30;;;16.10;99.90;;;;;;5051444;28;20131;-45
2022/10/28 00:31:38;;;;;;;18.13;9.30;;;16.10;99.90;;;;;;5053293;28;20032;-46
2022/10/28 00:34:05;;;;;;;16.35;9.27;;;16.00;99.90;;;;;;5052915;28;20927;-44
2022/10/28 00:36:34;;;;;;;20.13;9.82;;;16.00;99.90;;;;;;5053229;28;20045;-44
2022/10/28 01:12:33;;;;;;;18.63;10.27;;;15.70;99.90;;;;;;5027152;28;20602;-44
2022/10/28 01:15:30;;;;;;;19.92;10.55;;;15.70;99.90;;;;;;5051698;28;20055;-43
2022/10/28 01:18:24;;;;;;;16.25;10.40;;;15.40;99.90;;;;;;5047821;28;20499;-44
2022/10/28 01:21:21;;;;;;;13.90;10.30;;;15.60;99.90;;;;;;5052805;28;20116;-44
2022/10/28 01:24:14;;;;;;;13.70;9.70;;;15.40;99.90;;;;;;5050645;28;20468;-44
2022/10/28 01:27:21;;;;;;;21.65;11.38;;;15.40;99.90;;;;;;5051360;28;20120;-44
2022/10/28 01:30:07;;;;;;;20.73;10.98;;;15.40;99.90;;;;;;5049620;28;20072;-45
2022/10/28 01:33:02;;;;;;;17.48;11.30;;;15.30;99.90;;;;;;5049958;28;20427;-43
2022/10/28 01:35:44;;;;;;;20.02;11.82;;;15.20;99.90;;;;;;5051890;28;20427;-44
2022/10/28 02:03:57;;;;;;;18.85;12.65;;;14.90;99.90;;;;;;5049050;28;20053;-44
2022/10/28 02:06:26;;;;;;;18.65;12.60;;;15.10;99.90;;;;;;5050374;28;20447;-45
2022/10/28 02:09:11;;;;;;;22.02;12.77;;;15.10;99.90;;;;;;5049746;28;20086;-43
2022/10/28 02:11:40;;;;;;;20.48;12.85;;;14.80;99.90;;;;;;5048890;28;20064;-46
2022/10/28 02:14:27;;;;;;;21.55;13.43;;;14.80;99.90;;;;;;5050161;28;20060;-44
2022/10/28 02:17:06;;;;;;;22.08;13.48;;;14.70;99.90;;;;;;5048587;28;20064;-44
2022/10/28 02:19:50;;;;;;;20.10;13.32;;;14.70;99.90;;;;;;5049521;28;20053;-45
2022/10/28 02:22:21;;;;;;;19.40;13.85;;;15.00;99.90;;;;;;5051147;28;20048;-45
2022/10/28 02:25:10;;;;;;;24.00;14.07;;;14.60;99.90;;;;;;5130137;27;1249316;-45
2022/10/28 02:27:49;;;;;;;18.17;13.52;;;15.00;99.90;;;;;;5161094;27;20485;-45
2022/10/28 02:30:30;;;;;;;21.42;14.18;;;14.70;99.90;;;;;;5155236;27;20044;-44
2022/10/28 02:32:59;;;;;;;23.65;15.00;;;14.70;99.90;;;;;;5156742;27;20077;-43
2022/10/28 02:35:38;;;;;;;24.05;14.40;;;14.90;99.90;;;;;;5142430;27;20042;-46
2022/10/28 02:38:09;;;;;;;22.50;15.30;;;14.70;99.90;;;;;;5142736;27;20030;-45
2022/10/28 02:40:37;;;;;;;22.60;14.85;;;14.80;99.90;;;;;;5156776;27;20087;-46
2022/10/28 02:43:07;;;;;;;22.88;13.95;;;14.50;99.90;;;;;;5162894;27;20046;-44
2022/10/28 02:45:41;;;;;;;17.52;12.98;;;14.60;99.90;;;;;;5152006;27;20038;-44
2022/10/28 02:48:17;;;;;;;21.35;13.95;;;14.80;99.90;;;;;;5170043;27;20023;-44
2022/10/28 02:50:48;;;;;;;23.33;15.77;;;14.80;99.90;;;;;;5161324;27;20370;-45
2022/10/28 02:53:25;;;;;;;19.98;13.40;;;14.70;99.90;;;;;;5147146;27;20049;-44
2022/10/28 02:55:53;;;;;;;19.33;13.82;;;14.80;99.90;;;;;;5153352;27;20045;-46
2022/10/28 02:58:20;;;;;;;21.90;13.98;;;14.70;99.90;;;;;;5157449;27;20038;-49
2022/10/28 03:00:46;;;;;;;22.02;15.05;;;14.70;99.90;;;;;;5142911;27;20386;-44
2022/10/28 03:03:12;;;;;;;21.65;14.70;;;14.70;99.90;;;;;;5155915;27;20034;-46
2022/10/28 03:05:38;;;;;;;28.25;15.48;;;14.70;99.90;;;;;;5157983;27;20031;-46
2022/10/28 03:08:04;;;;;;;25.92;15.57;;;14.40;99.90;;;;;;5148551;27;20042;-45
2022/10/28 03:10:29;;;;;;;21.83;14.85;;;14.40;99.90;;;;;;5157041;27;20062;-45
2022/10/28 03:12:55;;;;;;;22.85;16.05;;;14.50;99.90;;;;;;5165230;27;20443;-44
2022/10/28 03:15:21;;;;;;;29.92;16.25;;;14.60;99.90;;;;;;5157881;27;20388;-44
2022/10/28 03:17:46;;;;;;;25.63;16.63;;;14.50;99.90;;;;;;5153123;27;20558;-45
2022/10/28 03:20:12;;;;;;;24.90;16.73;;;14.60;99.90;;;;;;5130175;27;20701;-46
2022/10/28 03:22:38;;;;;;;24.20;16.02;;;14.80;99.90;;;;;;5160671;27;20038;-43
2022/10/28 03:25:04;;;;;;;27.15;16.17;;;14.80;99.90;;;;;;5151173;27;20047;-46
2022/10/28 03:27:30;;;;;;;26.00;16.23;;;14.80;99.90;;;;;;5142289;27;20038;-44
2022/10/28 03:29:55;;;;;;;25.77;16.10;;;14.50;99.90;;;;;;5151411;27;20038;-46
2022/10/28 03:32:21;;;;;;;25.95;16.02;;;14.50;99.90;;;;;;5167069;27;20034;-44
2022/10/28 03:34:47;;;;;;;22.17;16.35;;;14.80;99.90;;;;;;5160944;27;20042;-44
2022/10/28 03:37:13;;;;;;;23.00;16.05;;;14.40;99.90;;;;;;5134583;27;20470;-47
2022/10/28 03:39:38;;;;;;;20.77;16.33;;;14.60;99.90;;;;;;5116142;27;20110;-45
2022/10/28 03:42:04;;;;;;;26.27;16.95;;;14.50;99.90;;;;;;5139307;27;20507;-46
2022/10/28 03:44:30;;;;;;;25.13;15.80;;;14.60;99.90;;;;;;5139993;27;20514;-46
2022/10/28 03:46:55;;;;;;;26.50;17.13;;;14.40;99.90;;;;;;5118823;27;20035;-45
2022/10/28 03:49:21;;;;;;;25.67;16.52;;;14.50;99.90;;;;;;5137447;27;20045;-44
2022/10/28 03:51:47;;;;;;;24.05;16.55;;;14.80;99.90;;;;;;5147412;27;20031;-45
2022/10/28 03:54:12;;;;;;;26.88;16.67;;;14.70;99.90;;;;;;5138329;27;20039;-45
2022/10/28 03:56:39;;;;;;;26.05;16.50;;;14.70;99.90;;;;;;5152019;27;20095;-45
2022/10/28 03:59:07;;;;;;;24.27;16.75;;;14.50;99.90;;;;;;5145072;27;20114;-44
2022/10/28 04:01:33;;;;;;;25.27;15.90;;;14.80;99.90;;;;;;5122469;27;20026;-48
2022/10/28 04:03:59;;;;;;;23.13;15.70;;;14.70;99.90;;;;;;5138590;27;20404;-46
2022/10/28 04:06:24;;;;;;;24.30;16.23;;;14.50;99.90;;;;;;5144253;27;20092;-45
2022/10/28 04:08:50;;;;;;;23.85;15.48;;;14.60;99.90;;;;;;5139868;27;20065;-46
2022/10/28 04:11:15;;;;;;;25.02;15.80;;;14.40;99.90;;;;;;5143101;27;20107;-46
2022/10/28 04:13:41;;;;;;;23.67;16.10;;;14.70;99.90;;;;;;5144932;27;20046;-45
2022/10/28 04:16:07;;;;;;;24.90;15.55;;;14.80;99.90;;;;;;5118839;27;20042;-48
2022/10/28 04:18:34;;;;;;;26.25;16.02;;;14.70;99.90;;;;;;5143779;27;20117;-44
2022/10/28 04:21:00;;;;;;;26.17;15.38;;;14.80;99.90;;;;;;5133124;27;20045;-44
2022/10/28 04:23:26;;;;;;;21.40;15.25;;;14.50;99.90;;;;;;5134333;27;20096;-45
2022/10/28 04:25:53;;;;;;;30.20;15.45;;;14.40;99.90;;;;;;5119042;27;20042;-45
2022/10/28 04:28:19;;;;;;;25.52;15.15;;;14.80;99.90;;;;;;5146823;27;20070;-44
2022/10/28 04:30:48;;;;;;;22.83;15.27;;;14.60;99.90;;;;;;5121123;27;20043;-45
2022/10/28 04:33:14;;;;;;;25.30;15.80;;;14.80;99.90;;;;;;5132717;27;20046;-48
2022/10/28 04:35:41;;;;;;;24.05;14.55;;;14.60;99.90;;;;;;5139315;27;20485;-46
2022/10/28 04:38:09;;;;;;;25.67;15.40;;;14.60;99.90;;;;;;5144142;27;20143;-46
2022/10/28 04:40:34;;;;;;;20.60;13.40;;;14.70;99.90;;;;;;5138551;27;20039;-47
2022/10/28 04:43:00;;;;;;;20.90;14.43;;;14.90;99.90;;;;;;5138430;27;20046;-46
2022/10/28 04:45:26;;;;;;;25.52;14.23;;;14.50;99.90;;;;;;5135068;27;20039;-47
2022/10/28 04:47:59;;;;;;;21.92;14.60;;;14.70;99.90;;;;;;5150210;27;20485;-45
2022/10/28 04:50:25;;;;;;;23.05;14.10;;;14.50;99.90;;;;;;5152450;27;20031;-46
2022/10/28 04:52:51;;;;;;;25.63;14.23;;;14.90;99.90;;;;;;5146628;27;20042;-45
2022/10/28 04:55:17;;;;;;;21.15;14.25;;;14.80;99.90;;;;;;5134865;27;20159;-48
2022/10/28 04:57:43;;;;;;;22.48;13.48;;;14.90;99.90;;;;;;5109194;27;20046;-45
2022/10/28 05:00:09;;;;;;;18.85;13.60;;;14.70;99.90;;;;;;5147733;27;20039;-45
2022/10/28 05:02:34;;;;;;;18.25;13.32;;;14.80;99.90;;;;;;5138952;27;20061;-46
2022/10/28 05:05:03;;;;;;;21.08;12.85;;;14.70;99.90;;;;;;5102652;27;20466;-46
2022/10/28 05:07:29;;;;;;;25.25;13.35;;;14.60;99.90;;;;;;5145319;27;20038;-48
2022/10/28 05:09:54;;;;;;;22.63;12.90;;;14.60;99.90;;;;;;5132988;27;20035;-45
2022/10/28 05:12:20;;;;;;;20.23;12.38;;;14.70;99.90;;;;;;5144265;27;20044;-44
2022/10/28 05:14:46;;;;;;;20.92;13.07;;;14.70;99.90;;;;;;5143557;27;20034;-45
2022/10/28 05:17:11;;;;;;;19.08;12.65;;;14.90;99.90;;;;;;5133483;27;20398;-46
2022/10/28 05:19:37;;;;;;;21.85;12.43;;;14.80;99.90;;;;;;5118628;27;20382;-45
2022/10/28 05:22:03;;;;;;;21.05;12.25;;;14.80;99.90;;;;;;5140047;27;20042;-48
2022/10/28 05:24:29;;;;;;;21.73;11.75;;;14.60;99.90;;;;;;5115064;27;20486;-47
2022/10/28 05:26:54;;;;;;;17.75;11.90;;;14.80;99.90;;;;;;5143761;27;20071;-44
2022/10/28 05:29:20;;;;;;;18.48;11.85;;;15.00;99.90;;;;;;5140040;27;20042;-45
2022/10/28 05:31:46;;;;;;;20.67;12.13;;;14.80;99.90;;;;;;5137201;27;20126;-44
2022/10/28 05:34:11;;;;;;;19.45;11.98;;;14.90;99.90;;;;;;5133274;27;20035;-44
2022/10/28 05:36:37;;;;;;;19.23;11.55;;;14.90;99.90;;;;;;5133581;27;20466;-46
2022/10/28 05:39:03;;;;;;;20.13;12.40;;;14.80;99.90;;;;;;5131989;27;20043;-45
2022/10/28 05:41:29;;;;;;;19.77;11.35;;;14.60;99.90;;;;;;5132360;27;20073;-46
2022/10/28 05:43:55;;;;;;;17.17;10.82;;;14.90;99.90;;;;;;5141164;27;20047;-47
2022/10/28 05:46:21;;;;;;;19.10;11.27;;;15.00;99.90;;;;;;5114716;27;20043;-46
2022/10/28 05:48:47;;;;;;;20.85;11.63;;;14.80;99.90;;;;;;5133672;27;20073;-45
2022/10/28 05:51:13;;;;;;;19.70;11.52;;;14.70;99.90;;;;;;5099619;27;20363;-47
2022/10/28 05:53:40;;;;;;;20.17;11.43;;;14.90;99.90;;;;;;5138409;27;20072;-46
2022/10/28 05:56:06;;;;;;;18.92;12.23;;;14.70;99.90;;;;;;5136044;27;20081;-47
2022/10/28 05:58:32;;;;;;;21.73;12.20;;;14.80;99.90;;;;;;5145985;27;20054;-46
2022/10/28 06:00:58;;;;;;;20.42;11.45;;;14.60;99.90;;;;;;5114407;27;20039;-49
2022/10/28 06:03:23;;;;;;;18.67;10.93;;;14.80;99.90;;;;;;5135342;27;20162;-44
2022/10/28 06:05:49;;;;;;;19.15;11.18;;;14.80;99.90;;;;;;5118055;27;20039;-46
2022/10/28 06:08:15;;;;;;;18.90;11.15;;;14.50;99.90;;;;;;5150129;27;20046;-45
2022/10/28 06:10:48;;;;;;;21.40;10.98;;;14.70;99.90;;;;;;5118192;27;20027;-46
2022/10/28 06:13:14;;;;;;;20.33;10.98;;;14.40;99.90;;;;;;5132446;27;20477;-45
2022/10/28 06:15:39;;;;;;;17.75;10.65;;;14.50;99.90;;;;;;5134544;27;20160;-45
2022/10/28 06:18:05;;;;;;;19.85;11.20;;;14.70;99.90;;;;;;5137999;27;20031;-45
2022/10/28 06:20:31;;;;;;;19.60;11.55;;;14.60;99.90;;;;;;5139572;27;20080;-46
2022/10/28 06:22:56;;;;;;;20.63;11.63;;;14.70;99.90;;;;;;5125320;27;20049;-44
2022/10/28 06:25:23;;;;;;;21.27;10.27;;;14.60;99.90;;;;;;5142821;27;20482;-47
2022/10/28 06:27:57;;;;;;;19.08;10.80;;;14.50;99.90;;;;;;5136339;27;20035;-45
2022/10/28 06:30:25;;;;;;;19.17;10.57;;;14.70;99.90;;;;;;5132541;27;20450;-46
2022/10/28 06:32:50;;;;;;;22.10;11.23;;;14.70;99.90;;;;;;5139451;27;20030;-46
2022/10/28 06:35:16;;;;;;;19.05;10.60;;;14.70;99.90;;;;;;5141014;27;20054;-46
2022/10/28 06:37:42;;;;;;;19.23;10.05;;;14.70;99.90;;;;;;5118411;27;20057;-45
2022/10/28 06:40:08;;;;;;;22.17;10.93;;;14.70;99.90;;;;;;5140330;27;20037;-47
2022/10/28 06:42:34;;;;;;;16.08;10.10;;;14.50;99.90;;;;;;5148289;27;20031;-46
2022/10/28 06:44:59;;;;;;;18.88;9.88;;;14.50;99.90;;;;;;5148599;27;20041;-45
2022/10/28 06:47:25;;;;;;;18.67;9.25;;;14.50;99.90;;;;;;5123925;27;20523;-45
2022/10/28 06:49:50;;;;;;;15.68;10.30;;;14.50;99.90;;;;;;5130034;27;20501;-45
2022/10/28 06:52:16;;;;;;;17.92;10.25;;;14.60;99.90;;;;;;5132882;27;20082;-46
2022/10/28 06:54:42;;;;;;;16.85;10.27;;;14.70;99.90;;;;;;5140620;27;20039;-44
2022/10/28 06:57:09;;;;;;;17.55;9.52;;;14.50;99.90;;;;;;5136998;27;20059;-44
2022/10/28 06:59:35;;;;;;;20.70;9.85;;;14.50;99.90;;;;;;5139290;27;20039;-46
2022/10/28 07:02:00;;;;;;;18.10;9.50;;;14.70;99.90;;;;;;5132330;27;20031;-44
2022/10/28 07:04:26;;;;;;;17.92;9.45;;;14.60;99.90;;;;;;5107587;28;20035;-45
2022/10/28 07:06:56;;;;;;;22.65;9.32;;;14.80;99.90;;;;;;5123516;27;20071;-45
2022/10/28 07:09:22;;;;;;;19.80;9.65;;;14.90;99.90;;;;;;5121972;27;20664;-46
2022/10/28 07:11:48;;;;;;;16.45;8.90;;;14.60;99.90;;;;;;5125946;27;20025;-45
2022/10/28 07:14:14;;;;;;;18.27;9.20;;;14.60;99.90;;;;;;5108672;27;20031;-46
2022/10/28 07:16:41;;;;;;;19.42;9.48;;;14.60;99.90;;;;;;5126371;27;20035;-45
2022/10/28 07:19:07;;;;;;;14.57;9.43;;;14.80;99.90;;;;;;5125718;27;20039;-46
2022/10/28 07:21:32;;;;;;;19.67;10.13;;;14.80;99.90;;;;;;5121893;27;20033;-45
2022/10/28 07:23:58;;;;;;;19.67;9.20;;;14.80;99.90;;;;;;5126869;27;20122;-44
2022/10/28 07:26:24;;;;;;;16.83;8.95;;;14.90;99.90;;;;;;5124462;27;20039;-44
2022/10/28 07:28:50;;;;;;;17.55;10.05;;;14.90;99.90;;;;;;5107337;27;20026;-44
2022/10/28 07:31:16;;;;;;;18.33;9.55;;;14.80;99.90;;;;;;5127231;27;20094;-44
2022/10/28 07:33:42;;;;;;;18.15;9.07;;;14.70;99.90;;;;;;5125439;27;20070;-45
2022/10/28 07:36:08;;;;;;;20.17;9.45;;;15.00;99.90;;;;;;5127181;27;20398;-45
2022/10/28 07:38:34;;;;;;;17.88;9.20;;;14.80;99.90;;;;;;5126177;27;20031;-45
2022/10/28 07:41:08;;;;;;;18.23;9.75;;;14.90;99.90;;;;;;5126627;27;20512;-45
2022/10/28 07:43:37;;;;;;;16.63;10.05;;;14.90;99.90;;;;;;5125930;27;20122;-46
2022/10/28 07:46:05;;;;;;;14.20;8.68;;;15.10;99.90;;;;;;5126756;27;20035;-47
2022/10/28 07:48:31;;;;;;;16.30;8.88;;;15.20;99.90;;;;;;5126322;27;20066;-47
2022/10/28 07:51:03;;;;;;;18.40;9.38;;;15.00;99.90;;;;;;5107831;27;20505;-45
2022/10/28 07:53:29;;;;;;;18.42;9.77;;;15.20;99.90;;;;;;5124201;27;20035;-45
2022/10/28 07:55:57;;;;;;;15.77;9.10;;;15.30;99.90;;;;;;5122583;27;20035;-45
2022/10/28 07:58:22;;;;;;;18.50;8.88;;;15.10;99.90;;;;;;5122506;27;20074;-44
2022/10/28 08:00:48;;;;;;;18.67;9.50;;;15.20;99.90;;;;;;5103546;27;20063;-45
2022/10/28 08:03:14;;;;;;;17.08;8.95;;;15.20;99.90;;;;;;5087291;27;20463;-46
2022/10/28 08:05:39;;;;;;;18.98;9.75;;;15.40;99.90;;;;;;5121740;27;20100;-47
2022/10/28 08:08:05;;;;;;;13.23;8.85;;;15.50;99.90;;;;;;5122509;27;20671;-46
2022/10/28 08:10:31;;;;;;;21.52;9.38;;;15.30;99.90;;;;;;5081573;27;20039;-44
2022/10/28 08:12:57;;;;;;;18.05;8.20;;;15.30;99.90;;;;;;5119339;27;20067;-46
2022/10/28 08:15:23;;;;;;;17.90;9.20;;;15.60;99.90;;;;;;5123756;27;20039;-47
2022/10/28 08:17:55;;;;;;;19.80;9.35;;;15.60;99.90;;;;;;5112027;27;20557;-46
2022/10/28 08:20:22;;;;;;;19.05;9.25;;;15.70;99.90;;;;;;5143998;27;20479;-46
2022/10/28 08:22:47;;;;;;;15.55;8.05;;;15.70;99.90;;;;;;5151633;27;20118;-47
2022/10/28 08:25:13;;;;;;;15.52;8.75;;;15.90;99.90;;;;;;5143049;27;20119;-47
2022/10/28 08:27:41;;;;;;;17.05;8.82;;;15.80;99.90;;;;;;5140370;27;20026;-49
2022/10/28 08:30:07;;;;;;;14.60;8.55;;;16.10;99.90;;;;;;5149779;27;20114;-46
2022/10/28 08:32:33;;;;;;;16.05;8.35;;;16.00;99.90;;;;;;5133764;27;20031;-46
2022/10/28 08:34:59;;;;;;;19.05;8.98;;;16.20;99.90;;;;;;5130179;27;20038;-48
2022/10/28 08:37:24;;;;;;;16.42;8.32;;;16.40;99.90;;;;;;5128740;27;20084;-49
2022/10/28 08:39:50;;;;;;;19.23;7.82;;;16.60;99.90;;;;;;5131171;27;20039;-46
2022/10/28 08:42:45;;;;;;;18.00;7.80;;;16.50;99.90;;;;;;5135041;27;20042;-46
2022/10/28 08:45:23;;;;;;;15.00;7.40;;;16.60;99.90;;;;;;5132723;27;20481;-49
2022/10/28 08:48:15;;;;;;;17.40;8.60;;;16.60;99.90;;;;;;5134668;27;20047;-47
2022/10/28 08:50:50;;;;;;;16.10;7.82;;;16.70;99.90;;;;;;5135015;27;20069;-51
2022/10/28 08:53:23;;;;;;;16.48;8.00;;;16.80;99.90;;;;;;5122613;27;20047;-47
2022/10/28 08:55:52;;;;;;;14.20;7.83;;;16.70;99.90;;;;;;5115899;27;20035;-47
2022/10/28 08:58:23;;;;;;;21.35;8.52;;;16.70;99.90;;;;;;5125427;27;20399;-45
2022/10/28 09:00:54;;;;;;;15.00;8.02;;;16.90;99.90;;;;;;5125302;27;20099;-50
2022/10/28 09:03:27;;;;;;;14.90;7.70;;;16.90;99.90;;;;;;5136981;27;20038;-47
2022/10/28 09:06:00;;;;;;;17.65;8.18;;;16.80;99.90;;;;;;5134306;27;20093;-48
2022/10/28 09:08:30;;;;;;;17.30;8.13;;;16.80;99.90;;;;;;5128289;27;20527;-46
2022/10/28 09:11:05;;;;;;;17.73;7.57;;;16.90;99.90;;;;;;5125810;27;20047;-51
2022/10/28 09:13:55;;;;;;;18.90;7.45;;;16.80;99.90;;;;;;5136309;27;20504;-46
2022/10/28 09:16:45;;;;;;;15.23;8.00;;;16.90;99.90;;;;;;5114775;27;20150;-48
2022/10/28 09:19:39;;;;;;;17.65;7.60;;;16.80;99.90;;;;;;5129926;27;20063;-48
2022/10/28 09:22:43;;;;;;;17.02;8.38;;;16.90;99.90;;;;;;5136212;27;20088;-46
2022/10/28 09:25:29;;;;;;;16.58;7.78;;;17.00;99.90;;;;;;5075614;27;20043;-46
2022/10/28 09:28:05;;;;;;;20.70;8.68;;;17.10;99.90;;;;;;5129607;27;20114;-49
2022/10/28 09:30:43;;;;;;;16.70;7.85;;;17.10;99.90;;;;;;5132711;27;20039;-46
2022/10/28 09:33:33;;;;;;;18.73;7.68;;;17.00;99.90;;;;;;5128386;27;20042;-46
2022/10/28 09:36:01;;;;;;;13.82;7.43;;;17.10;99.90;;;;;;5129532;27;20078;-46
2022/10/28 09:38:30;;;;;;;15.68;7.72;;;17.10;99.90;;;;;;5130039;27;20084;-45
2022/10/28 09:41:05;;;;;;;14.77;7.68;;;17.10;99.90;;;;;;5134477;27;20035;-46
2022/10/28 09:43:40;;;;;;;15.45;7.57;;;17.20;99.90;;;;;;5129374;27;20415;-46
2022/10/28 09:46:14;;;;;;;22.30;7.85;;;17.10;99.90;;;;;;5128901;27;20485;-42
2022/10/28 09:48:44;;;;;;;;;;;17.30;99.90;;;;;;5130986;27;20035;-42
2022/10/28 09:51:37;;;;;;;11.98;7.28;;;17.10;99.90;;;;;;5109728;27;19919;-47
2022/10/28 09:54:03;;;;;;;16.10;7.72;;;17.40;99.90;;;;;;5131069;27;20484;-43
2022/10/28 09:56:29;;;;;;;15.07;7.28;;;17.50;99.90;;;;;;5129944;27;20039;-47
2022/10/28 09:58:59;;;;;;;13.95;7.38;;;17.70;99.90;;;;;;5133292;27;20049;-45
2022/10/28 10:01:32;;;;;;;17.42;7.63;;;17.80;99.90;;;;;;5126056;27;20466;-44
2022/10/28 10:03:58;;;;;;;14.73;7.10;;;17.90;99.90;;;;;;5132559;27;20126;-44
2022/10/28 10:06:32;;;;;;;15.15;7.25;;;18.00;99.90;;;;;;5129127;27;20047;-47
2022/10/28 10:09:00;;;;;;;16.55;7.25;;;18.10;99.90;;;;;;5127120;27;20036;-46
2022/10/28 10:11:46;;;;;;;12.63;6.20;;;18.10;99.90;;;;;;5130338;27;20441;-44
2022/10/28 10:14:20;;;;;;;14.35;6.47;;;18.20;99.90;;;;;;5127850;27;20074;-45
2022/10/28 10:16:52;;;;;;;16.90;7.00;;;18.10;99.90;;;;;;5127958;27;20133;-44
2022/10/28 10:19:18;;;;;;;12.95;6.72;;;18.20;99.90;;;;;;5126226;27;20371;-46
2022/10/28 10:21:46;;;;;;;17.67;6.70;;;18.10;99.90;;;;;;5125674;27;20035;-49
2022/10/28 10:24:22;;;;;;;16.10;7.30;;;18.00;99.90;;;;;;5125210;27;20054;-44
2022/10/28 10:26:48;;;;;;;13.93;6.78;;;18.10;99.90;;;;;;5128416;27;20477;-46
2022/10/28 10:29:13;;;;;;;17.00;6.95;;;18.10;99.90;;;;;;5127806;27;20512;-46
2022/10/28 10:31:39;;;;;;;19.63;6.47;;;18.20;99.90;;;;;;5121854;27;20059;-46
2022/10/28 10:34:19;;;;;;;18.80;7.30;;;18.10;99.90;;;;;;5129636;27;20126;-46
2022/10/28 10:36:50;;;;;;;12.90;6.55;;;18.20;99.90;;;;;;5127929;27;20443;-44
2022/10/28 10:39:30;;;;;;;19.38;6.57;;;18.20;99.90;;;;;;5133335;27;20035;-48
2022/10/28 10:41:55;;;;;;;16.95;6.55;;;18.30;99.90;;;;;;5129817;27;20031;-45
2022/10/28 10:44:21;;;;;;;14.93;6.60;;;18.20;99.90;;;;;;5135313;27;20039;-44
2022/10/28 10:46:47;;;;;;;15.35;6.80;;;18.30;99.90;;;;;;5130325;27;20044;-47
2022/10/28 10:49:14;;;;;;;14.65;7.03;;;18.50;99.90;;;;;;5135684;27;20059;-44
2022/10/28 10:51:55;;;;;;;13.48;6.32;;;18.70;99.90;;;;;;5140030;27;20034;-44
2022/10/28 10:54:22;;;;;;;15.00;6.65;;;18.90;99.90;;;;;;5133037;27;20095;-45
2022/10/28 10:56:48;;;;;;;14.55;6.97;;;19.20;99.90;;;;;;5129804;27;20041;-44
2022/10/28 10:59:36;;;;;;;13.82;6.50;;;19.40;99.90;;;;;;5129144;27;20541;-44
2022/10/28 11:02:03;;;;;;;12.88;6.30;;;19.60;99.90;;;;;;5126469;27;20051;-44
2022/10/28 11:04:29;;;;;;;12.75;5.80;;;19.70;99.90;;;;;;5133034;27;20182;-47
2022/10/28 11:06:56;;;;;;;13.57;5.63;;;19.80;99.90;;;;;;5127867;27;20541;-46
2022/10/28 11:09:41;;;;;;;18.70;6.90;;;19.80;99.90;;;;;;5128636;27;20031;-45
2022/10/28 11:12:29;;;;;;;17.05;6.25;;;19.90;99.90;;;;;;5122224;27;20089;-47
2022/10/28 11:14:56;;;;;;;14.20;6.30;;;20.00;99.90;;;;;;5124609;27;20493;-44
2022/10/28 11:17:28;;;;;;;13.55;6.03;;;20.00;99.90;;;;;;5127655;27;20485;-46
2022/10/28 11:19:56;;;;;;;16.98;6.35;;;20.10;99.90;;;;;;5136285;27;20051;-45
2022/10/28 11:22:41;;;;;;;13.77;6.22;;;20.10;99.90;;;;;;5132168;27;20386;-44
2022/10/28 11:25:25;;;;;;;17.00;6.03;;;20.20;99.90;;;;;;5131813;27;20168;-46
2022/10/28 11:28:28;;;;;;;17.25;6.05;;;20.40;99.90;;;;;;5129090;27;20035;-47
2022/10/28 11:31:22;;;;;;;13.55;5.68;;;20.50;99.90;;;;;;5135518;27;20127;-45
2022/10/28 11:34:31;;;;;;;14.00;6.28;;;20.70;99.90;;;;;;5126865;27;20065;-45
2022/10/28 11:37:08;;;;;;;13.30;5.53;;;20.90;99.90;;;;;;5089396;27;20507;-45
2022/10/28 11:40:12;;;;;;;17.27;6.30;;;20.90;99.90;;;;;;5130120;27;20110;-47
2022/10/28 11:43:00;;;;;;;13.40;6.00;;;20.80;99.90;;;;;;5126309;27;20480;-44
2022/10/28 11:45:36;;;;;;;17.65;6.47;;;20.80;99.90;;;;;;5131846;27;20067;-44
2022/10/28 11:48:35;;;;;;;14.60;6.28;;;20.80;99.90;;;;;;5127488;27;20043;-47
2022/10/28 11:51:24;;;;;;;14.73;5.82;;;20.60;99.90;;;;;;5124293;27;20038;-44
2022/10/28 11:53:50;;;;;;;15.90;6.25;;;20.60;99.90;;;;;;5123505;27;20093;-46
2022/10/28 11:56:15;;;;;;;18.50;5.60;;;20.50;99.90;;;;;;5130371;27;20047;-46
2022/10/28 11:58:50;;;;;;;16.13;5.68;;;20.40;99.90;;;;;;5125389;27;20040;-46
2022/10/28 12:01:18;;;;;;;14.73;6.38;;;20.40;99.90;;;;;;5126493;27;20536;-45
2022/10/28 12:03:53;;;;;;;15.38;5.78;;;20.30;99.90;;;;;;5132057;27;20120;-45
2022/10/28 12:06:23;;;;;;;21.85;6.28;;;20.30;99.90;;;;;;5131254;27;20494;-45
2022/10/28 12:09:05;;;;;;;14.93;5.90;;;20.30;99.90;;;;;;5141059;27;20087;-47
2022/10/28 12:11:36;;;;;;;17.70;6.47;;;20.30;99.90;;;;;;5136924;27;20472;-46
2022/10/28 12:14:41;;;;;;;18.63;6.50;;;20.30;99.90;;;;;;5133670;27;20451;-47
2022/10/28 12:17:24;;;;;;;16.77;6.68;;;20.30;99.90;;;;;;5134594;27;20118;-46
2022/10/28 12:19:57;;;;;;;14.55;6.57;;;20.40;99.90;;;;;;5135531;27;20079;-49
2022/10/28 12:22:30;;;;;;;16.20;6.40;;;20.30;99.90;;;;;;5137666;27;20477;-43
2022/10/28 12:25:00;;;;;;;15.20;6.32;;;20.30;99.90;;;;;;5141016;27;20043;-44
2022/10/28 12:27:32;;;;;;;17.83;6.60;;;20.30;99.90;;;;;;5106077;27;20402;-46
2022/10/28 12:30:22;;;;;;;13.77;6.28;;;20.40;99.90;;;;;;5148126;27;20035;-49
2022/10/28 12:33:00;;;;;;;14.77;6.10;;;20.30;99.90;;;;;;5151249;27;20374;-48
2022/10/28 12:35:36;;;;;;;17.27;6.38;;;20.40;99.90;;;;;;5134472;27;20520;-45
2022/10/28 12:38:07;;;;;;;17.00;6.35;;;20.40;99.90;;;;;;5130518;27;20043;-45
2022/10/28 12:40:42;;;;;;;12.60;6.10;;;20.40;99.90;;;;;;5152755;27;20114;-44
2022/10/28 12:43:37;;;;;;;22.27;6.90;;;20.30;99.90;;;;;;5141262;27;20031;-48
2022/10/28 12:46:03;;;;;;;13.73;5.80;;;20.40;99.90;;;;;;5134869;27;20035;-46
2022/10/28 12:48:40;;;;;;;15.48;6.25;;;20.40;99.90;;;;;;5137809;27;20102;-44
2022/10/28 12:51:15;;;;;;;15.57;5.82;;;20.50;99.90;;;;;;5128217;27;20510;-45
2022/10/28 12:53:53;;;;;;;15.85;6.65;;;20.50;99.90;;;;;;5143364;27;20457;-49
2022/10/28 12:56:27;;;;;;;16.08;6.22;;;20.50;99.90;;;;;;5146823;27;20039;-47
2022/10/28 12:58:58;;;;;;;;;;;20.60;99.90;;;;;;5139902;27;20038;-47
2022/10/28 13:01:26;;;;;;;16.38;6.45;;;20.60;99.90;;;;;;5138947;27;20366;-45
2022/10/28 13:03:52;;;;;;;16.58;5.80;;;20.70;99.90;;;;;;5141061;27;20035;-47
2022/10/28 13:06:52;;;;;;;18.63;5.60;;;20.70;99.90;;;;;;5122836;27;20041;-45
2022/10/28 13:09:26;;;;;;;17.58;5.68;;;20.80;99.90;;;;;;5134142;27;20156;-45
2022/10/28 13:12:36;;;;;;;13.65;5.18;;;20.90;99.90;;;;;;5134192;27;20035;-45
2022/10/28 13:15:17;;;;;;;15.32;5.10;;;20.90;99.90;;;;;;5133231;27;20773;-45
2022/10/28 13:18:07;;;;;;;20.10;4.85;;;20.90;99.90;;;;;;5142621;27;20122;-48
2022/10/28 13:20:53;;;;;;;15.02;5.70;;;20.90;99.90;;;;;;5122293;27;20108;-47
2022/10/28 13:23:35;;;;;;;12.05;4.55;;;20.90;99.90;;;;;;5133138;27;20494;-45
2022/10/28 13:26:10;;;;;;;12.98;4.82;;;20.90;99.90;;;;;;5133827;27;20073;-49
2022/10/28 13:28:48;;;;;;;15.55;5.03;;;20.80;99.90;;;;;;5143326;27;20043;-45
2022/10/28 13:31:15;;;;;;;15.60;5.35;;;20.70;99.90;;;;;;5136845;27;20030;-48
2022/10/28 13:33:47;;;;;;;16.83;5.50;;;20.60;99.90;;;;;;5143920;27;20042;-48
2022/10/28 13:36:30;;;;;;;18.55;5.50;;;20.60;99.90;;;;;;5117474;27;20054;-46
2022/10/28 13:38:59;;;;;;;13.93;5.07;;;20.50;99.90;;;;;;5141867;27;20115;-47
2022/10/28 13:41:36;;;;;;;14.05;5.15;;;20.40;99.90;;;;;;5133084;27;20092;-46
2022/10/28 13:44:08;;;;;;;13.88;5.40;;;20.40;99.90;;;;;;5123091;27;20393;-45
2022/10/28 13:46:55;;;;;;;17.48;5.20;;;20.30;99.90;;;;;;5112455;27;20046;-44
2022/10/28 13:49:25;;;;;;;22.02;6.05;;;20.30;99.90;;;;;;5142777;27;20027;-45
2022/10/28 13:52:14;;;;;;;14.18;5.53;;;20.20;99.90;;;;;;5141024;27;20041;-46
2022/10/28 13:54:43;;;;;;;14.95;5.25;;;20.20;99.90;;;;;;5137713;27;20035;-45
2022/10/28 13:57:35;;;;;;;15.48;6.05;;;20.10;99.90;;;;;;5140794;27;20063;-46